»·PEaware :: N2318F KIGM-KPHX

N2318F :: KIGM-KPHX

FLIGHT INFORMATION

Flight Status: Arrived
Operator: Privately registered:
United States
More flights under this callsign
Pilot: Georg L. (13308)
Aircraft: AIRBUS A300B4-600
(A306)
More flights by this aircraft type
Origin: KIGM Kingman
United States
Destination: KPHX Phoenix Sky Harbor Intl
United States
More flights between these airports :: More routes between these airports
Route: +WOTRO BRUSR1
File this flight plan on PilotEdge
Remarks:
Altitude:
(Current/Filed)
25,000ft
Speed:
(Current/Filed)
450kts
Departed: 13-Sep-20 08:53 AM
Arrived: 13-Sep-20 09:27 AM
Distance/Time
Traveled:
145nm/0:33
Distance/Time
To Go:
Arrived

Flight Plot

Page will automatically refresh every two minutes.

Flight plan parsing failed; only flown route is shown


Map Options




Map Legend


Flown Route
Filed Route
Departure Airport
Arrival Airport
Navaid (VOR, NDB)
Fix

Horizontal Profiles

Position Reports

Time Latitude Longitude Heading Altitude Ground
Speed
13-Sep-20 08:29 35.256102 -113.946835 90 3405ft 0kts
13-Sep-20 08:30 35.256102 -113.946835 90 3405ft 0kts
13-Sep-20 08:31 35.256102 -113.946835 90 3405ft 0kts
13-Sep-20 08:32 35.256102 -113.946835 90 3405ft 0kts
13-Sep-20 08:33 35.256102 -113.946835 90 3405ft 0kts
13-Sep-20 08:34 35.256102 -113.946835 90 3405ft 0kts
13-Sep-20 08:35 35.256102 -113.946835 90 3405ft 0kts
13-Sep-20 08:36 35.256102 -113.946835 90 3405ft 0kts
13-Sep-20 08:37 35.256102 -113.946835 90 3405ft 0kts
13-Sep-20 08:38 35.256102 -113.946835 90 3405ft 0kts
13-Sep-20 08:39 35.256102 -113.946835 90 3405ft 0kts
13-Sep-20 08:40 35.256102 -113.946835 90 3405ft 0kts
13-Sep-20 08:41 35.256102 -113.946835 90 3405ft 0kts
13-Sep-20 08:42 35.256102 -113.946835 90 3405ft 0kts
13-Sep-20 08:43 35.256102 -113.946835 90 3405ft 0kts
13-Sep-20 08:44 35.256102 -113.946835 89 3405ft 0kts
13-Sep-20 08:45 35.256102 -113.946835 90 3405ft 0kts
13-Sep-20 08:46 35.256102 -113.946835 90 3405ft 0kts
13-Sep-20 08:47 35.256102 -113.946835 90 3405ft 0kts
13-Sep-20 08:48 35.256369 -113.944923 63 3412ft 21kts
13-Sep-20 08:49 35.262562 -113.937145 42 3406ft 32kts
13-Sep-20 08:50 35.265068 -113.932463 133 3405ft 5kts
13-Sep-20 08:51 35.264089 -113.932726 224 3408ft 0kts
13-Sep-20 08:52 35.248121 -113.952453 228 3900ft 219kts
13-Sep-20 08:53 35.198264 -113.986015 145 10095ft 241kts
13-Sep-20 08:54 35.156191 -113.920424 123 14446ft 254kts
13-Sep-20 08:55 35.097960 -113.871889 151 15247ft 270kts
13-Sep-20 08:56 35.081634 -113.794500 78 15036ft 254kts
13-Sep-20 08:57 35.099462 -113.688024 77 18425ft 367kts
13-Sep-20 08:58 35.123495 -113.550956 76 22451ft 417kts
13-Sep-20 08:59 35.149441 -113.405123 76 23128ft 448kts
13-Sep-20 09:00 35.162598 -113.253475 107 24883ft 464kts
13-Sep-20 09:01 35.071263 -113.145743 127 25183ft 466kts
13-Sep-20 09:02 35.002015 -113.020541 123 25262ft 439kts
13-Sep-20 09:03 34.934298 -112.897169 123 25276ft 439kts
13-Sep-20 09:04 34.865920 -112.773216 123 25273ft 439kts
13-Sep-20 09:05 34.797294 -112.649165 123 25324ft 442kts
13-Sep-20 09:06 34.727937 -112.525598 126 25292ft 442kts
13-Sep-20 09:07 34.640490 -112.422976 140 23703ft 435kts
13-Sep-20 09:08 34.548617 -112.331945 140 21544ft 419kts
13-Sep-20 09:09 34.460644 -112.246801 146 20397ft 382kts
13-Sep-20 09:10 34.363961 -112.208552 168 19132ft 362kts
13-Sep-20 09:11 34.263834 -112.182617 167 17269ft 358kts
13-Sep-20 09:12 34.166196 -112.157374 167 15564ft 349kts
13-Sep-20 09:13 34.075208 -112.135870 166 14303ft 327kts
13-Sep-20 09:14 33.973531 -112.121297 172 13313ft 358kts
13-Sep-20 09:15 33.890429 -112.157708 191 11913ft 302kts
13-Sep-20 09:16 33.808929 -112.176998 188 9314ft 294kts
13-Sep-20 09:18 33.734604 -112.193154 188 8332ft 261kts
13-Sep-20 09:19 33.663568 -112.208307 187 7463ft 259kts
13-Sep-20 09:20 33.592790 -112.223342 187 6293ft 257kts
13-Sep-20 09:21 33.526089 -112.237777 187 5655ft 218kts
13-Sep-20 09:22 33.469589 -112.248894 169 4910ft 198kts
13-Sep-20 09:23 33.429087 -112.209051 108 3998ft 183kts
13-Sep-20 09:24 33.428797 -112.152572 88 3233ft 170kts
13-Sep-20 09:25 33.428876 -112.097039 89 2320ft 163kts
13-Sep-20 09:26 33.428863 -112.046613 90 1505ft 148kts
13-Sep-20 09:27 33.428851 -112.004983 90 1148ft 39kts
13-Sep-20 09:28 33.429943 -112.004255 269 1148ft 15kts
13-Sep-20 09:29 33.430466 -112.008858 23 1148ft 3kts
13-Sep-20 09:30 33.432690 -112.010096 347 1148ft 5kts
13-Sep-20 09:31 33.432874 -112.014992 269 1148ft 22kts
13-Sep-20 09:32 33.433736 -112.018088 180 1148ft 8kts
13-Sep-20 09:33 33.433571 -112.018088 179 1148ft 0kts
13-Sep-20 09:34 33.433571 -112.018088 179 1148ft 0kts

Navigation Log

Ident Type
Flight plan parsing failed, navigation log unavailable